INDIA METEOROLOGICAL DEPARTMENT, R.M.C. NEW DELHI
Dated:1 - 10 - 2014
METARS


Ahmedabad  
VAAH 011810Z 00000KT 4000 HZ FEW020 29/25 Q1012 NOSIG=
Amritsar   
VIAR 011800Z 00000KT 2500 BR FEW040 26/23 Q1012=
Aurangabad 
VAAU 011800Z 00000KT 6000 BKN020 27/20 Q1015=
Bangalore  
VOBL 011800Z 15004KT 030V170 8000 FEW015 SCT080 26/22 Q1017 NOSIG=
Bhubaneswar
VEBS 011800Z 00000KT 2500 HZ FEW020 25/24 Q1010 NOSIG=
Chennai    
VOMM 011810Z 00000KT 6000 FEW020 26/24 Q1011 NOSIG=
Coimbatore 
VOCB 011700Z 00000 5000 HZ FEW015 SCT200 25/23 1014 NOSIG=
Colombo    
VCBI 011810Z 00000KT 9999 SCT016 24/23 Q1011 NOSIG=
Delhi      
VIDP 011800Z 14003KT 3200 HZ FEW100 29/20 Q1012 NOSIG=
Gaya       
VEGY 011800Z 00000KT 3000 BR FEW018 22/21 Q1011 =
Hyderabad  
VOHS 011810Z VRB03KT 6000 SCT015 SCT200 22/15 Q1016 NOSIG=
Indore     
VAID 011800Z 32002KT 6000 FEW020 23/18 Q1016=
Jaipur     
VIJP 011730Z 34004KT 3000 HZ FEW040 30/16 Q1014 NOSIG=
Kochi      
VOCI 011730Z 00000KT 4500 HZ SCT015 BKN090 25/24 Q1013 NOSIG=
Kolkata    
VECC 011750Z 00000KT 2600 BR FEW020 28/25 Q1010 NOSIG=
Kozhikode  
VOCL 011800Z 12004KT 6000 FEW012 SCT090 25/23 Q1012 NOSIG =
Lucknow    
VILK 011730Z 00000KT 4000 HZ NSC 25/23 Q1011=
Madurai    
SPECI VOMD 011800Z 00000KT 6000 SCT015 FEW025CB BKN090 26/25 Q1013 =
Mumbai     
VABB 011810Z 07006KT 2500 HZ SCT020 FEW030CB BKN100 27/22 Q1011 NOSIG=
Nagpur     
VANP 011740Z 32003KT 4000 HZ SCT100 27/20 Q1014 NOSIG=
Patna      
VEPT 011750Z NIL=
Trichy     
VOTR 011810Z VRB02KT 6000 FEW016 28/24 Q1012 NOSIG=
Trivandrum 
VOTV 011810Z 27003KT 3000 HZ SCT015 FEW025CB BKN090 27/24 Q1011 NOSIG=
Varanasi   
VIBN 011630Z 00000KT 4000 HZ NSC 27/22 Q1011=
Vizag      
VOVZ 011800Z 27004KT 4500 BR FEW018 SCT090 28/25 Q1010 NOSIG =
Male       
VRMM 011800Z 23005KT 9999 SCT018TCU BKN270 28/25 Q1012 NOSIG=
Gan        
VRMG 011800Z 23005KT 9999 FEW018TCU BKN110 27/24 Q1011=
Kathmandu   
VNKT 011750Z 00000KT 8000 FEW025 18/16 Q1020 NOSIG=
Dhaka      
VGHS 011750Z 00000KT 4000 HZ SCT100 29/24 Q1009 NOSIG=
Colombo     
VCBI 011810Z 00000KT 9999 SCT016 24/23 Q1011 NOSIG=
Karachi     
OPKC 011800Z NIL=
Lahore      
OPLA 011800Z 12003KT 4000 FU FEW100 28/22 Q1012 NOSIG=